sensor_id;sensor_type;location;lat;lon;timestamp;P1;durP1;ratioP1;P2;durP2;ratioP2
4074;SDS011;2052;53.522;9.806;2023-09-12T00:00:20;83.23;;;39.33;;
4074;SDS011;2052;53.522;9.806;2023-09-12T00:02:48;64.53;;;38.10;;
4074;SDS011;2052;53.522;9.806;2023-09-12T00:05:15;68.53;;;36.10;;
4074;SDS011;2052;53.522;9.806;2023-09-12T00:07:42;62.20;;;36.70;;
4074;SDS011;2052;53.522;9.806;2023-09-12T00:10:08;65.10;;;38.40;;
4074;SDS011;2052;53.522;9.806;2023-09-12T00:12:37;65.43;;;37.97;;
4074;SDS011;2052;53.522;9.806;2023-09-12T00:15:03;71.47;;;38.93;;
4074;SDS011;2052;53.522;9.806;2023-09-12T00:17:30;64.67;;;35.73;;
4074;SDS011;2052;53.522;9.806;2023-09-12T00:19:57;71.03;;;37.97;;
4074;SDS011;2052;53.522;9.806;2023-09-12T00:22:24;64.97;;;35.80;;
4074;SDS011;2052;53.522;9.806;2023-09-12T00:24:50;66.97;;;35.60;;
4074;SDS011;2052;53.522;9.806;2023-09-12T00:27:17;61.70;;;35.10;;
4074;SDS011;2052;53.522;9.806;2023-09-12T00:29:45;67.90;;;38.43;;
4074;SDS011;2052;53.522;9.806;2023-09-12T00:32:11;58.97;;;34.90;;
4074;SDS011;2052;53.522;9.806;2023-09-12T00:34:38;61.00;;;35.60;;
4074;SDS011;2052;53.522;9.806;2023-09-12T00:37:04;65.83;;;36.93;;
4074;SDS011;2052;53.522;9.806;2023-09-12T00:39:31;61.40;;;36.17;;
4074;SDS011;2052;53.522;9.806;2023-09-12T00:41:57;61.97;;;36.23;;
4074;SDS011;2052;53.522;9.806;2023-09-12T00:44:24;59.63;;;35.50;;
4074;SDS011;2052;53.522;9.806;2023-09-12T00:46:52;58.37;;;34.67;;
4074;SDS011;2052;53.522;9.806;2023-09-12T00:49:19;65.03;;;34.20;;
4074;SDS011;2052;53.522;9.806;2023-09-12T00:51:47;63.30;;;36.00;;
4074;SDS011;2052;53.522;9.806;2023-09-12T00:54:17;65.70;;;34.97;;
4074;SDS011;2052;53.522;9.806;2023-09-12T00:56:44;64.50;;;34.53;;
4074;SDS011;2052;53.522;9.806;2023-09-12T00:59:11;62.40;;;36.50;;
4074;SDS011;2052;53.522;9.806;2023-09-12T01:01:38;61.50;;;34.13;;
4074;SDS011;2052;53.522;9.806;2023-09-12T01:04:06;60.27;;;34.67;;
4074;SDS011;2052;53.522;9.806;2023-09-12T01:06:33;62.93;;;34.83;;
4074;SDS011;2052;53.522;9.806;2023-09-12T01:09:00;70.20;;;34.50;;
4074;SDS011;2052;53.522;9.806;2023-09-12T01:11:26;69.83;;;36.93;;
4074;SDS011;2052;53.522;9.806;2023-09-12T01:13:53;58.10;;;32.23;;
4074;SDS011;2052;53.522;9.806;2023-09-12T01:16:20;55.93;;;34.00;;
4074;SDS011;2052;53.522;9.806;2023-09-12T01:18:46;51.03;;;31.20;;
4074;SDS011;2052;53.522;9.806;2023-09-12T01:21:26;56.63;;;33.20;;
4074;SDS011;2052;53.522;9.806;2023-09-12T01:24:20;61.43;;;33.33;;
4074;SDS011;2052;53.522;9.806;2023-09-12T01:26:59;52.93;;;30.93;;
4074;SDS011;2052;53.522;9.806;2023-09-12T01:29:46;58.87;;;33.13;;
4074;SDS011;2052;53.522;9.806;2023-09-12T01:32:16;54.00;;;32.50;;
4074;SDS011;2052;53.522;9.806;2023-09-12T01:34:44;59.57;;;33.47;;
4074;SDS011;2052;53.522;9.806;2023-09-12T01:37:10;59.23;;;31.73;;
4074;SDS011;2052;53.522;9.806;2023-09-12T01:39:37;59.20;;;34.20;;
4074;SDS011;2052;53.522;9.806;2023-09-12T01:42:04;56.13;;;33.87;;
4074;SDS011;2052;53.522;9.806;2023-09-12T01:44:33;56.27;;;33.37;;
4074;SDS011;2052;53.522;9.806;2023-09-12T01:47:02;61.17;;;34.10;;
4074;SDS011;2052;53.522;9.806;2023-09-12T01:49:30;58.17;;;32.50;;
4074;SDS011;2052;53.522;9.806;2023-09-12T01:51:57;59.90;;;34.93;;
4074;SDS011;2052;53.522;9.806;2023-09-12T01:54:25;62.80;;;34.70;;
4074;SDS011;2052;53.522;9.806;2023-09-12T01:56:52;60.80;;;35.43;;
4074;SDS011;2052;53.522;9.806;2023-09-12T01:59:22;63.50;;;34.47;;
4074;SDS011;2052;53.522;9.806;2023-09-12T02:01:50;60.77;;;34.70;;
4074;SDS011;2052;53.522;9.806;2023-09-12T02:04:17;52.90;;;30.30;;
4074;SDS011;2052;53.522;9.806;2023-09-12T02:06:43;65.10;;;33.97;;
4074;SDS011;2052;53.522;9.806;2023-09-12T02:09:10;60.63;;;34.90;;
4074;SDS011;2052;53.522;9.806;2023-09-12T02:11:36;67.83;;;35.00;;
4074;SDS011;2052;53.522;9.806;2023-09-12T02:14:03;63.57;;;33.80;;
4074;SDS011;2052;53.522;9.806;2023-09-12T02:16:30;53.10;;;32.40;;
4074;SDS011;2052;53.522;9.806;2023-09-12T02:18:58;67.33;;;36.60;;
4074;SDS011;2052;53.522;9.806;2023-09-12T02:21:25;59.13;;;35.03;;
4074;SDS011;2052;53.522;9.806;2023-09-12T02:23:51;68.27;;;34.00;;
4074;SDS011;2052;53.522;9.806;2023-09-12T02:26:18;60.70;;;34.87;;
4074;SDS011;2052;53.522;9.806;2023-09-12T02:28:45;70.00;;;36.23;;
4074;SDS011;2052;53.522;9.806;2023-09-12T02:31:11;70.30;;;37.50;;
4074;SDS011;2052;53.522;9.806;2023-09-12T02:33:38;67.03;;;37.23;;
4074;SDS011;2052;53.522;9.806;2023-09-12T02:36:06;59.00;;;32.93;;
4074;SDS011;2052;53.522;9.806;2023-09-12T02:38:33;67.50;;;36.30;;
4074;SDS011;2052;53.522;9.806;2023-09-12T02:40:59;59.33;;;33.80;;
4074;SDS011;2052;53.522;9.806;2023-09-12T02:43:27;58.33;;;34.47;;
4074;SDS011;2052;53.522;9.806;2023-09-12T02:45:54;71.70;;;38.50;;
4074;SDS011;2052;53.522;9.806;2023-09-12T02:48:20;75.00;;;38.33;;
4074;SDS011;2052;53.522;9.806;2023-09-12T02:50:47;71.47;;;37.30;;
4074;SDS011;2052;53.522;9.806;2023-09-12T02:53:15;75.47;;;40.13;;
4074;SDS011;2052;53.522;9.806;2023-09-12T02:55:42;82.20;;;42.37;;
4074;SDS011;2052;53.522;9.806;2023-09-12T02:58:08;76.13;;;38.67;;
4074;SDS011;2052;53.522;9.806;2023-09-12T03:00:37;69.87;;;38.33;;
4074;SDS011;2052;53.522;9.806;2023-09-12T03:03:04;77.77;;;43.03;;
4074;SDS011;2052;53.522;9.806;2023-09-12T03:05:30;76.03;;;38.57;;
4074;SDS011;2052;53.522;9.806;2023-09-12T03:07:57;68.63;;;39.87;;
4074;SDS011;2052;53.522;9.806;2023-09-12T03:10:25;76.03;;;38.20;;
4074;SDS011;2052;53.522;9.806;2023-09-12T03:12:52;73.00;;;38.03;;
4074;SDS011;2052;53.522;9.806;2023-09-12T03:15:18;76.63;;;40.57;;
4074;SDS011;2052;53.522;9.806;2023-09-12T03:17:47;69.70;;;38.90;;
4074;SDS011;2052;53.522;9.806;2023-09-12T03:20:15;70.67;;;36.93;;
4074;SDS011;2052;53.522;9.806;2023-09-12T03:22:41;71.33;;;38.63;;
4074;SDS011;2052;53.522;9.806;2023-09-12T03:25:08;76.43;;;36.33;;
4074;SDS011;2052;53.522;9.806;2023-09-12T03:27:36;71.40;;;36.87;;
4074;SDS011;2052;53.522;9.806;2023-09-12T03:30:03;70.10;;;38.33;;
4074;SDS011;2052;53.522;9.806;2023-09-12T03:32:30;67.73;;;38.00;;
4074;SDS011;2052;53.522;9.806;2023-09-12T03:34:57;68.80;;;36.20;;
4074;SDS011;2052;53.522;9.806;2023-09-12T03:37:23;71.73;;;37.50;;
4074;SDS011;2052;53.522;9.806;2023-09-12T03:39:52;70.60;;;38.57;;
4074;SDS011;2052;53.522;9.806;2023-09-12T03:42:18;65.77;;;36.47;;
4074;SDS011;2052;53.522;9.806;2023-09-12T03:44:46;76.63;;;38.67;;
4074;SDS011;2052;53.522;9.806;2023-09-12T03:47:13;74.90;;;39.40;;
4074;SDS011;2052;53.522;9.806;2023-09-12T03:49:39;65.00;;;37.60;;
4074;SDS011;2052;53.522;9.806;2023-09-12T03:52:06;72.73;;;38.10;;
4074;SDS011;2052;53.522;9.806;2023-09-12T03:54:32;83.03;;;39.80;;
4074;SDS011;2052;53.522;9.806;2023-09-12T03:56:59;72.40;;;39.80;;
4074;SDS011;2052;53.522;9.806;2023-09-12T03:59:26;75.67;;;38.50;;
4074;SDS011;2052;53.522;9.806;2023-09-12T04:01:54;75.67;;;40.87;;
4074;SDS011;2052;53.522;9.806;2023-09-12T04:04:21;70.40;;;37.00;;
4074;SDS011;2052;53.522;9.806;2023-09-12T04:06:48;83.10;;;38.27;;
4074;SDS011;2052;53.522;9.806;2023-09-12T04:09:15;82.33;;;40.13;;
4074;SDS011;2052;53.522;9.806;2023-09-12T04:11:43;76.70;;;37.90;;
4074;SDS011;2052;53.522;9.806;2023-09-12T04:14:09;76.27;;;37.67;;
4074;SDS011;2052;53.522;9.806;2023-09-12T04:16:36;68.70;;;39.00;;
4074;SDS011;2052;53.522;9.806;2023-09-12T04:19:04;77.50;;;36.53;;
4074;SDS011;2052;53.522;9.806;2023-09-12T04:21:30;73.67;;;40.40;;
4074;SDS011;2052;53.522;9.806;2023-09-12T04:23:57;71.47;;;39.27;;
4074;SDS011;2052;53.522;9.806;2023-09-12T04:26:23;70.20;;;38.40;;
4074;SDS011;2052;53.522;9.806;2023-09-12T04:28:50;65.33;;;35.77;;
4074;SDS011;2052;53.522;9.806;2023-09-12T04:31:17;70.27;;;37.77;;
4074;SDS011;2052;53.522;9.806;2023-09-12T04:33:43;75.93;;;39.40;;
4074;SDS011;2052;53.522;9.806;2023-09-12T04:36:11;77.53;;;36.60;;
4074;SDS011;2052;53.522;9.806;2023-09-12T04:38:37;72.10;;;37.20;;
4074;SDS011;2052;53.522;9.806;2023-09-12T04:41:04;68.73;;;38.67;;
4074;SDS011;2052;53.522;9.806;2023-09-12T04:43:31;81.90;;;36.93;;
4074;SDS011;2052;53.522;9.806;2023-09-12T04:45:58;75.33;;;38.97;;
4074;SDS011;2052;53.522;9.806;2023-09-12T04:48:25;72.87;;;36.70;;
4074;SDS011;2052;53.522;9.806;2023-09-12T04:50:51;76.77;;;37.90;;
4074;SDS011;2052;53.522;9.806;2023-09-12T04:53:22;81.80;;;38.20;;
4074;SDS011;2052;53.522;9.806;2023-09-12T04:55:48;75.23;;;37.10;;
4074;SDS011;2052;53.522;9.806;2023-09-12T04:58:16;78.23;;;37.27;;
4074;SDS011;2052;53.522;9.806;2023-09-12T05:00:42;77.70;;;38.57;;
4074;SDS011;2052;53.522;9.806;2023-09-12T05:03:09;70.90;;;36.57;;
4074;SDS011;2052;53.522;9.806;2023-09-12T05:05:35;79.90;;;39.60;;
4074;SDS011;2052;53.522;9.806;2023-09-12T05:08:03;73.00;;;37.90;;
4074;SDS011;2052;53.522;9.806;2023-09-12T05:10:31;82.00;;;37.07;;
4074;SDS011;2052;53.522;9.806;2023-09-12T05:12:57;72.07;;;39.23;;
4074;SDS011;2052;53.522;9.806;2023-09-12T05:15:24;84.23;;;37.80;;
4074;SDS011;2052;53.522;9.806;2023-09-12T05:17:51;84.80;;;39.17;;
4074;SDS011;2052;53.522;9.806;2023-09-12T05:20:17;78.63;;;39.17;;
4074;SDS011;2052;53.522;9.806;2023-09-12T05:22:44;78.93;;;38.07;;
4074;SDS011;2052;53.522;9.806;2023-09-12T05:25:11;82.90;;;38.77;;
4074;SDS011;2052;53.522;9.806;2023-09-12T05:27:39;76.47;;;37.83;;
4074;SDS011;2052;53.522;9.806;2023-09-12T05:30:06;76.30;;;38.57;;
4074;SDS011;2052;53.522;9.806;2023-09-12T05:32:33;76.13;;;38.50;;
4074;SDS011;2052;53.522;9.806;2023-09-12T05:35:01;70.70;;;36.97;;
4074;SDS011;2052;53.522;9.806;2023-09-12T05:37:28;82.47;;;40.47;;
4074;SDS011;2052;53.522;9.806;2023-09-12T05:39:55;80.53;;;38.17;;
4074;SDS011;2052;53.522;9.806;2023-09-12T05:42:22;72.60;;;38.60;;
4074;SDS011;2052;53.522;9.806;2023-09-12T05:44:50;72.83;;;36.30;;
4074;SDS011;2052;53.522;9.806;2023-09-12T05:47:18;76.47;;;39.03;;
4074;SDS011;2052;53.522;9.806;2023-09-12T05:49:45;73.90;;;37.40;;
4074;SDS011;2052;53.522;9.806;2023-09-12T05:52:11;75.03;;;36.50;;
4074;SDS011;2052;53.522;9.806;2023-09-12T05:54:40;77.80;;;40.57;;
4074;SDS011;2052;53.522;9.806;2023-09-12T05:57:07;66.67;;;34.30;;
4074;SDS011;2052;53.522;9.806;2023-09-12T05:59:35;74.07;;;35.80;;
4074;SDS011;2052;53.522;9.806;2023-09-12T06:02:04;72.40;;;36.10;;
4074;SDS011;2052;53.522;9.806;2023-09-12T06:04:33;69.93;;;37.23;;
4074;SDS011;2052;53.522;9.806;2023-09-12T06:07:00;79.30;;;39.50;;
4074;SDS011;2052;53.522;9.806;2023-09-12T06:09:27;78.60;;;40.00;;
4074;SDS011;2052;53.522;9.806;2023-09-12T06:11:54;74.67;;;37.60;;
4074;SDS011;2052;53.522;9.806;2023-09-12T06:14:25;76.03;;;37.67;;
4074;SDS011;2052;53.522;9.806;2023-09-12T06:16:52;77.63;;;38.07;;
4074;SDS011;2052;53.522;9.806;2023-09-12T06:19:20;73.70;;;38.20;;
4074;SDS011;2052;53.522;9.806;2023-09-12T06:21:47;67.13;;;35.60;;
4074;SDS011;2052;53.522;9.806;2023-09-12T06:24:14;63.67;;;35.20;;
4074;SDS011;2052;53.522;9.806;2023-09-12T06:26:41;75.30;;;38.37;;
4074;SDS011;2052;53.522;9.806;2023-09-12T06:29:08;67.70;;;34.97;;
4074;SDS011;2052;53.522;9.806;2023-09-12T06:31:35;60.50;;;33.80;;
4074;SDS011;2052;53.522;9.806;2023-09-12T06:34:03;61.00;;;34.27;;
4074;SDS011;2052;53.522;9.806;2023-09-12T06:36:31;65.33;;;34.60;;
4074;SDS011;2052;53.522;9.806;2023-09-12T06:38:58;68.00;;;35.30;;
4074;SDS011;2052;53.522;9.806;2023-09-12T06:41:25;69.60;;;35.00;;
4074;SDS011;2052;53.522;9.806;2023-09-12T06:43:52;68.50;;;35.60;;
4074;SDS011;2052;53.522;9.806;2023-09-12T06:46:18;71.13;;;35.90;;
4074;SDS011;2052;53.522;9.806;2023-09-12T06:48:45;66.47;;;34.20;;
4074;SDS011;2052;53.522;9.806;2023-09-12T06:51:15;75.27;;;35.50;;
4074;SDS011;2052;53.522;9.806;2023-09-12T06:53:43;63.80;;;33.90;;
4074;SDS011;2052;53.522;9.806;2023-09-12T06:56:10;66.43;;;34.97;;
4074;SDS011;2052;53.522;9.806;2023-09-12T06:58:36;64.50;;;34.50;;
4074;SDS011;2052;53.522;9.806;2023-09-12T07:01:03;62.27;;;33.00;;
4074;SDS011;2052;53.522;9.806;2023-09-12T07:03:31;62.83;;;34.13;;
4074;SDS011;2052;53.522;9.806;2023-09-12T07:05:58;67.77;;;35.00;;
4074;SDS011;2052;53.522;9.806;2023-09-12T07:08:24;63.77;;;35.53;;
4074;SDS011;2052;53.522;9.806;2023-09-12T07:10:53;62.17;;;33.77;;
4074;SDS011;2052;53.522;9.806;2023-09-12T07:13:20;65.17;;;34.67;;
4074;SDS011;2052;53.522;9.806;2023-09-12T07:15:47;58.90;;;32.17;;
4074;SDS011;2052;53.522;9.806;2023-09-12T07:18:13;61.80;;;34.20;;
4074;SDS011;2052;53.522;9.806;2023-09-12T07:20:41;62.33;;;33.57;;
4074;SDS011;2052;53.522;9.806;2023-09-12T07:23:07;58.77;;;32.50;;
4074;SDS011;2052;53.522;9.806;2023-09-12T07:25:36;65.77;;;34.70;;
4074;SDS011;2052;53.522;9.806;2023-09-12T07:28:06;64.33;;;33.33;;
4074;SDS011;2052;53.522;9.806;2023-09-12T07:30:32;53.57;;;31.70;;
4074;SDS011;2052;53.522;9.806;2023-09-12T07:32:59;67.60;;;36.10;;
4074;SDS011;2052;53.522;9.806;2023-09-12T07:35:26;61.67;;;33.80;;
4074;SDS011;2052;53.522;9.806;2023-09-12T07:37:52;70.53;;;35.70;;
4074;SDS011;2052;53.522;9.806;2023-09-12T07:40:19;61.37;;;33.83;;
4074;SDS011;2052;53.522;9.806;2023-09-12T07:42:45;61.70;;;33.90;;
4074;SDS011;2052;53.522;9.806;2023-09-12T07:45:13;56.93;;;32.00;;
4074;SDS011;2052;53.522;9.806;2023-09-12T07:47:40;58.20;;;32.57;;
4074;SDS011;2052;53.522;9.806;2023-09-12T07:50:07;53.17;;;29.63;;
4074;SDS011;2052;53.522;9.806;2023-09-12T07:52:34;60.47;;;33.27;;
4074;SDS011;2052;53.522;9.806;2023-09-12T07:55:00;59.20;;;31.93;;
4074;SDS011;2052;53.522;9.806;2023-09-12T07:57:27;59.07;;;33.77;;
4074;SDS011;2052;53.522;9.806;2023-09-12T07:59:54;56.67;;;32.50;;
4074;SDS011;2052;53.522;9.806;2023-09-12T08:02:22;54.43;;;30.33;;
4074;SDS011;2052;53.522;9.806;2023-09-12T08:04:49;56.20;;;31.50;;
4074;SDS011;2052;53.522;9.806;2023-09-12T08:07:16;52.10;;;29.97;;
4074;SDS011;2052;53.522;9.806;2023-09-12T08:09:50;49.17;;;30.17;;
4074;SDS011;2052;53.522;9.806;2023-09-12T08:12:17;49.17;;;28.40;;
4074;SDS011;2052;53.522;9.806;2023-09-12T08:14:45;47.00;;;31.00;;
4074;SDS011;2052;53.522;9.806;2023-09-12T08:17:12;46.90;;;27.90;;
4074;SDS011;2052;53.522;9.806;2023-09-12T08:19:40;48.83;;;29.00;;
4074;SDS011;2052;53.522;9.806;2023-09-12T08:22:07;47.07;;;28.23;;
4074;SDS011;2052;53.522;9.806;2023-09-12T08:24:34;49.90;;;27.27;;
4074;SDS011;2052;53.522;9.806;2023-09-12T08:27:01;47.43;;;28.10;;
4074;SDS011;2052;53.522;9.806;2023-09-12T08:29:29;46.87;;;27.87;;
4074;SDS011;2052;53.522;9.806;2023-09-12T08:31:56;41.10;;;24.43;;
4074;SDS011;2052;53.522;9.806;2023-09-12T08:34:23;45.23;;;25.70;;
4074;SDS011;2052;53.522;9.806;2023-09-12T08:36:51;37.50;;;24.87;;
4074;SDS011;2052;53.522;9.806;2023-09-12T08:39:19;35.20;;;22.30;;
4074;SDS011;2052;53.522;9.806;2023-09-12T08:41:49;37.73;;;24.50;;
4074;SDS011;2052;53.522;9.806;2023-09-12T08:44:18;36.87;;;24.20;;
4074;SDS011;2052;53.522;9.806;2023-09-12T08:46:45;36.60;;;22.97;;
4074;SDS011;2052;53.522;9.806;2023-09-12T08:49:11;41.27;;;24.67;;
4074;SDS011;2052;53.522;9.806;2023-09-12T08:51:38;37.93;;;23.33;;
4074;SDS011;2052;53.522;9.806;2023-09-12T08:54:08;38.43;;;24.43;;
4074;SDS011;2052;53.522;9.806;2023-09-12T08:56:39;36.67;;;22.90;;
4074;SDS011;2052;53.522;9.806;2023-09-12T08:59:06;41.00;;;23.47;;
4074;SDS011;2052;53.522;9.806;2023-09-12T09:01:35;32.63;;;21.47;;
4074;SDS011;2052;53.522;9.806;2023-09-12T09:04:03;37.23;;;22.80;;
4074;SDS011;2052;53.522;9.806;2023-09-12T09:06:31;40.37;;;23.13;;
4074;SDS011;2052;53.522;9.806;2023-09-12T09:08:58;37.90;;;23.17;;
4074;SDS011;2052;53.522;9.806;2023-09-12T09:11:26;42.40;;;23.07;;
4074;SDS011;2052;53.522;9.806;2023-09-12T09:13:54;34.20;;;22.17;;
4074;SDS011;2052;53.522;9.806;2023-09-12T09:16:21;33.27;;;21.80;;
4074;SDS011;2052;53.522;9.806;2023-09-12T09:18:49;28.57;;;18.63;;
4074;SDS011;2052;53.522;9.806;2023-09-12T09:21:20;26.90;;;17.30;;
4074;SDS011;2052;53.522;9.806;2023-09-12T09:23:49;28.23;;;17.80;;
4074;SDS011;2052;53.522;9.806;2023-09-12T09:26:16;28.97;;;18.70;;
4074;SDS011;2052;53.522;9.806;2023-09-12T09:28:44;28.90;;;18.97;;
4074;SDS011;2052;53.522;9.806;2023-09-12T09:31:11;34.30;;;21.40;;
4074;SDS011;2052;53.522;9.806;2023-09-12T09:33:39;36.13;;;21.87;;
4074;SDS011;2052;53.522;9.806;2023-09-12T09:36:07;32.43;;;19.30;;
4074;SDS011;2052;53.522;9.806;2023-09-12T09:38:34;32.90;;;21.13;;
4074;SDS011;2052;53.522;9.806;2023-09-12T09:41:03;33.57;;;21.73;;
4074;SDS011;2052;53.522;9.806;2023-09-12T09:43:30;35.47;;;22.30;;
4074;SDS011;2052;53.522;9.806;2023-09-12T09:45:59;33.80;;;21.17;;
4074;SDS011;2052;53.522;9.806;2023-09-12T09:48:26;33.53;;;21.90;;
4074;SDS011;2052;53.522;9.806;2023-09-12T09:50:53;33.13;;;20.63;;
4074;SDS011;2052;53.522;9.806;2023-09-12T09:53:21;32.07;;;20.50;;
4074;SDS011;2052;53.522;9.806;2023-09-12T09:55:48;35.73;;;21.03;;
4074;SDS011;2052;53.522;9.806;2023-09-12T09:58:15;34.83;;;22.60;;
4074;SDS011;2052;53.522;9.806;2023-09-12T10:00:43;34.00;;;21.33;;
4074;SDS011;2052;53.522;9.806;2023-09-12T10:03:11;37.37;;;23.03;;
4074;SDS011;2052;53.522;9.806;2023-09-12T10:05:38;37.33;;;22.50;;
4074;SDS011;2052;53.522;9.806;2023-09-12T10:08:06;32.57;;;21.43;;
4074;SDS011;2052;53.522;9.806;2023-09-12T10:10:34;34.43;;;20.67;;
4074;SDS011;2052;53.522;9.806;2023-09-12T10:13:02;34.50;;;21.60;;
4074;SDS011;2052;53.522;9.806;2023-09-12T10:15:30;39.30;;;23.77;;
4074;SDS011;2052;53.522;9.806;2023-09-12T10:17:57;33.60;;;22.60;;
4074;SDS011;2052;53.522;9.806;2023-09-12T10:20:27;37.70;;;23.33;;
4074;SDS011;2052;53.522;9.806;2023-09-12T10:22:59;31.57;;;21.70;;
4074;SDS011;2052;53.522;9.806;2023-09-12T10:25:32;28.67;;;19.97;;
4074;SDS011;2052;53.522;9.806;2023-09-12T10:28:01;37.30;;;22.00;;
4074;SDS011;2052;53.522;9.806;2023-09-12T10:30:28;33.20;;;23.37;;
4074;SDS011;2052;53.522;9.806;2023-09-12T10:32:55;34.07;;;22.53;;
4074;SDS011;2052;53.522;9.806;2023-09-12T10:35:23;33.93;;;21.20;;
4074;SDS011;2052;53.522;9.806;2023-09-12T10:37:51;35.27;;;21.40;;
4074;SDS011;2052;53.522;9.806;2023-09-12T10:40:20;42.60;;;23.37;;
4074;SDS011;2052;53.522;9.806;2023-09-12T10:42:47;36.97;;;23.27;;
4074;SDS011;2052;53.522;9.806;2023-09-12T10:45:14;32.20;;;22.23;;
4074;SDS011;2052;53.522;9.806;2023-09-12T10:47:41;35.87;;;23.43;;
4074;SDS011;2052;53.522;9.806;2023-09-12T10:50:08;35.90;;;23.93;;
4074;SDS011;2052;53.522;9.806;2023-09-12T10:52:35;36.73;;;23.17;;
4074;SDS011;2052;53.522;9.806;2023-09-12T10:55:06;38.47;;;23.80;;
4074;SDS011;2052;53.522;9.806;2023-09-12T10:57:33;33.53;;;22.80;;
4074;SDS011;2052;53.522;9.806;2023-09-12T11:00:10;34.57;;;22.27;;
4074;SDS011;2052;53.522;9.806;2023-09-12T11:02:38;43.20;;;25.20;;
4074;SDS011;2052;53.522;9.806;2023-09-12T11:05:05;41.63;;;24.97;;
4074;SDS011;2052;53.522;9.806;2023-09-12T11:07:34;37.30;;;24.13;;
4074;SDS011;2052;53.522;9.806;2023-09-12T11:10:21;39.97;;;24.70;;
4074;SDS011;2052;53.522;9.806;2023-09-12T11:12:49;42.70;;;27.20;;
4074;SDS011;2052;53.522;9.806;2023-09-12T11:15:18;44.73;;;26.63;;
4074;SDS011;2052;53.522;9.806;2023-09-12T11:17:46;45.20;;;26.80;;
4074;SDS011;2052;53.522;9.806;2023-09-12T11:20:13;45.67;;;27.80;;
4074;SDS011;2052;53.522;9.806;2023-09-12T11:22:41;47.90;;;25.80;;
4074;SDS011;2052;53.522;9.806;2023-09-12T11:25:18;47.80;;;27.27;;
4074;SDS011;2052;53.522;9.806;2023-09-12T11:28:04;45.07;;;27.37;;
4074;SDS011;2052;53.522;9.806;2023-09-12T11:30:31;42.50;;;25.50;;
4074;SDS011;2052;53.522;9.806;2023-09-12T11:32:59;40.47;;;24.93;;
4074;SDS011;2052;53.522;9.806;2023-09-12T11:35:27;41.83;;;25.90;;
4074;SDS011;2052;53.522;9.806;2023-09-12T11:37:57;40.47;;;25.43;;
4074;SDS011;2052;53.522;9.806;2023-09-12T11:40:42;39.50;;;24.50;;
4074;SDS011;2052;53.522;9.806;2023-09-12T11:43:17;35.53;;;23.50;;
4074;SDS011;2052;53.522;9.806;2023-09-12T11:45:46;33.53;;;22.10;;
4074;SDS011;2052;53.522;9.806;2023-09-12T11:48:13;33.40;;;22.50;;
4074;SDS011;2052;53.522;9.806;2023-09-12T11:50:39;33.40;;;22.10;;
4074;SDS011;2052;53.522;9.806;2023-09-12T11:53:07;32.07;;;22.50;;
4074;SDS011;2052;53.522;9.806;2023-09-12T11:55:37;34.17;;;23.00;;
4074;SDS011;2052;53.522;9.806;2023-09-12T11:58:09;34.60;;;22.67;;
4074;SDS011;2052;53.522;9.806;2023-09-12T12:00:36;29.27;;;21.53;;
4074;SDS011;2052;53.522;9.806;2023-09-12T12:03:03;30.50;;;19.90;;
4074;SDS011;2052;53.522;9.806;2023-09-12T12:05:30;33.70;;;19.97;;
4074;SDS011;2052;53.522;9.806;2023-09-12T12:07:58;30.40;;;20.33;;
4074;SDS011;2052;53.522;9.806;2023-09-12T12:10:25;27.37;;;18.50;;
4074;SDS011;2052;53.522;9.806;2023-09-12T12:12:54;25.77;;;19.17;;
4074;SDS011;2052;53.522;9.806;2023-09-12T12:15:21;26.60;;;18.53;;
4074;SDS011;2052;53.522;9.806;2023-09-12T12:17:47;27.97;;;19.07;;
4074;SDS011;2052;53.522;9.806;2023-09-12T12:20:14;27.70;;;18.60;;
4074;SDS011;2052;53.522;9.806;2023-09-12T12:22:40;26.50;;;18.20;;
4074;SDS011;2052;53.522;9.806;2023-09-12T12:25:07;23.90;;;17.13;;
4074;SDS011;2052;53.522;9.806;2023-09-12T12:27:35;30.30;;;18.37;;
4074;SDS011;2052;53.522;9.806;2023-09-12T12:30:04;24.27;;;16.47;;
4074;SDS011;2052;53.522;9.806;2023-09-12T12:32:32;22.33;;;16.50;;
4074;SDS011;2052;53.522;9.806;2023-09-12T12:34:59;24.93;;;17.27;;
4074;SDS011;2052;53.522;9.806;2023-09-12T12:37:28;23.83;;;17.07;;
4074;SDS011;2052;53.522;9.806;2023-09-12T12:39:59;25.93;;;17.87;;
4074;SDS011;2052;53.522;9.806;2023-09-12T12:42:32;26.23;;;16.70;;
4074;SDS011;2052;53.522;9.806;2023-09-12T12:45:06;25.17;;;17.13;;
4074;SDS011;2052;53.522;9.806;2023-09-12T12:47:37;21.73;;;15.70;;
4074;SDS011;2052;53.522;9.806;2023-09-12T12:50:07;24.40;;;15.27;;
4074;SDS011;2052;53.522;9.806;2023-09-12T12:52:34;21.50;;;16.13;;
4074;SDS011;2052;53.522;9.806;2023-09-12T12:55:05;22.17;;;15.40;;
4074;SDS011;2052;53.522;9.806;2023-09-12T12:57:35;22.40;;;16.13;;
4074;SDS011;2052;53.522;9.806;2023-09-12T13:00:06;22.10;;;16.70;;
4074;SDS011;2052;53.522;9.806;2023-09-12T13:02:36;20.70;;;15.30;;
4074;SDS011;2052;53.522;9.806;2023-09-12T13:05:02;21.70;;;14.80;;
4074;SDS011;2052;53.522;9.806;2023-09-12T13:07:33;22.13;;;16.10;;
4074;SDS011;2052;53.522;9.806;2023-09-12T13:09:59;23.73;;;16.07;;
4074;SDS011;2052;53.522;9.806;2023-09-12T13:12:26;22.00;;;15.43;;
4074;SDS011;2052;53.522;9.806;2023-09-12T13:14:53;27.23;;;16.00;;
4074;SDS011;2052;53.522;9.806;2023-09-12T13:17:21;18.20;;;14.47;;
4074;SDS011;2052;53.522;9.806;2023-09-12T13:19:47;21.17;;;14.03;;
4074;SDS011;2052;53.522;9.806;2023-09-12T13:22:14;22.73;;;16.63;;
4074;SDS011;2052;53.522;9.806;2023-09-12T13:24:40;19.60;;;13.70;;
4074;SDS011;2052;53.522;9.806;2023-09-12T13:27:07;17.00;;;13.33;;
4074;SDS011;2052;53.522;9.806;2023-09-12T13:29:33;19.00;;;15.37;;
4074;SDS011;2052;53.522;9.806;2023-09-12T13:32:00;19.80;;;14.03;;
4074;SDS011;2052;53.522;9.806;2023-09-12T13:34:28;25.33;;;14.20;;
4074;SDS011;2052;53.522;9.806;2023-09-12T13:36:54;26.50;;;16.77;;
4074;SDS011;2052;53.522;9.806;2023-09-12T13:39:24;21.80;;;16.90;;
4074;SDS011;2052;53.522;9.806;2023-09-12T13:41:51;18.80;;;15.10;;
4074;SDS011;2052;53.522;9.806;2023-09-12T13:44:17;22.77;;;14.90;;
4074;SDS011;2052;53.522;9.806;2023-09-12T13:46:44;20.67;;;15.83;;
4074;SDS011;2052;53.522;9.806;2023-09-12T13:49:13;21.40;;;16.07;;
4074;SDS011;2052;53.522;9.806;2023-09-12T13:51:46;24.60;;;17.40;;
4074;SDS011;2052;53.522;9.806;2023-09-12T13:54:13;26.40;;;16.73;;
4074;SDS011;2052;53.522;9.806;2023-09-12T13:56:40;21.77;;;15.90;;
4074;SDS011;2052;53.522;9.806;2023-09-12T13:59:07;22.00;;;15.23;;
4074;SDS011;2052;53.522;9.806;2023-09-12T14:01:33;27.17;;;16.57;;
4074;SDS011;2052;53.522;9.806;2023-09-12T14:04:00;21.73;;;16.07;;
4074;SDS011;2052;53.522;9.806;2023-09-12T14:06:27;25.30;;;16.87;;
4074;SDS011;2052;53.522;9.806;2023-09-12T14:08:55;21.70;;;16.43;;
4074;SDS011;2052;53.522;9.806;2023-09-12T14:11:22;22.00;;;15.20;;
4074;SDS011;2052;53.522;9.806;2023-09-12T14:13:48;22.70;;;15.70;;
4074;SDS011;2052;53.522;9.806;2023-09-12T14:16:16;26.10;;;17.10;;
4074;SDS011;2052;53.522;9.806;2023-09-12T14:18:43;20.80;;;16.07;;
4074;SDS011;2052;53.522;9.806;2023-09-12T14:21:10;21.73;;;15.03;;
4074;SDS011;2052;53.522;9.806;2023-09-12T14:23:36;21.77;;;16.20;;
4074;SDS011;2052;53.522;9.806;2023-09-12T14:26:06;22.00;;;16.67;;
4074;SDS011;2052;53.522;9.806;2023-09-12T14:28:33;23.50;;;16.80;;
4074;SDS011;2052;53.522;9.806;2023-09-12T14:31:00;24.20;;;17.57;;
4074;SDS011;2052;53.522;9.806;2023-09-12T14:33:28;23.53;;;16.63;;
4074;SDS011;2052;53.522;9.806;2023-09-12T14:35:55;23.53;;;17.20;;
4074;SDS011;2052;53.522;9.806;2023-09-12T14:38:22;19.40;;;15.00;;
4074;SDS011;2052;53.522;9.806;2023-09-12T14:40:49;21.87;;;15.47;;
4074;SDS011;2052;53.522;9.806;2023-09-12T14:43:20;23.13;;;16.33;;
4074;SDS011;2052;53.522;9.806;2023-09-12T14:45:48;19.67;;;15.40;;
4074;SDS011;2052;53.522;9.806;2023-09-12T14:48:15;20.30;;;14.27;;
4074;SDS011;2052;53.522;9.806;2023-09-12T14:50:41;20.63;;;15.00;;